createdAt,value
2022-10-31T00:00:51.502Z,11.80
2022-10-31T00:03:20.179Z,11.80
2022-10-31T00:05:49.551Z,11.80
2022-10-31T00:08:18.730Z,11.80
2022-10-31T00:10:47.730Z,11.80
2022-10-31T00:13:17.091Z,11.80
2022-10-31T00:15:46.610Z,11.70
2022-10-31T00:18:14.833Z,11.60
2022-10-31T00:20:43.022Z,11.60
2022-10-31T00:23:12.652Z,11.60
2022-10-31T00:25:41.946Z,11.50
2022-10-31T00:28:12.752Z,11.50
2022-10-31T00:30:40.842Z,11.40
2022-10-31T00:33:10.294Z,11.40
2022-10-31T00:35:38.378Z,11.40
2022-10-31T00:38:06.478Z,11.40
2022-10-31T00:40:34.561Z,11.40
2022-10-31T00:43:03.192Z,11.40
2022-10-31T00:45:31.548Z,11.50
2022-10-31T00:47:59.854Z,11.40
2022-10-31T00:50:29.497Z,11.40
2022-10-31T00:52:57.935Z,11.30
2022-10-31T00:55:25.970Z,11.30
2022-10-31T00:57:54.082Z,11.30
2022-10-31T01:00:22.367Z,11.20
2022-10-31T01:02:50.658Z,11.20
2022-10-31T01:05:19.100Z,11.20
2022-10-31T01:07:48.618Z,11.20
2022-10-31T01:10:17.048Z,11.20
2022-10-31T01:12:46.864Z,11.20
2022-10-31T01:15:17.685Z,11.20
2022-10-31T01:17:45.857Z,11.20
2022-10-31T01:20:15.916Z,11.20
2022-10-31T01:22:44.196Z,11.20
2022-10-31T01:25:13.872Z,11.20
2022-10-31T01:27:41.942Z,11.20
2022-10-31T01:30:10.860Z,11.10
2022-10-31T01:32:39.061Z,11.10
2022-10-31T01:35:07.482Z,11.10
2022-10-31T01:37:35.565Z,11.10
2022-10-31T01:40:03.691Z,11.10
2022-10-31T01:42:33.189Z,11.10
2022-10-31T01:45:03.796Z,11.20
2022-10-31T01:47:38.122Z,11.20
2022-10-31T01:50:13.229Z,11.20
2022-10-31T01:52:45.088Z,11.20
2022-10-31T01:55:17.822Z,11.20
2022-10-31T01:57:50.314Z,11.20
2022-10-31T02:00:19.085Z,11.20
2022-10-31T02:02:48.088Z,11.30
2022-10-31T02:05:19.301Z,11.30
2022-10-31T02:07:54.165Z,11.20
2022-10-31T02:10:24.654Z,11.30
2022-10-31T02:12:57.384Z,11.20
2022-10-31T02:15:25.771Z,11.20
2022-10-31T02:17:54.285Z,11.20
2022-10-31T02:20:25.795Z,11.20
2022-10-31T02:23:22.511Z,11.20
2022-10-31T02:26:18.278Z,11.20
2022-10-31T02:29:05.610Z,11.10
2022-10-31T02:31:44.203Z,11.00
2022-10-31T02:34:19.818Z,11.00
2022-10-31T02:36:54.783Z,11.00
2022-10-31T02:39:27.675Z,10.90
2022-10-31T02:42:06.171Z,10.90
2022-10-31T02:44:40.083Z,10.90
2022-10-31T02:47:14.325Z,10.90
2022-10-31T02:49:47.914Z,10.80
2022-10-31T02:52:19.288Z,10.90
2022-10-31T02:54:48.879Z,10.90
2022-10-31T02:57:19.300Z,10.90
2022-10-31T02:59:50.526Z,10.90
2022-10-31T03:02:48.347Z,10.90
2022-10-31T03:05:48.121Z,10.90
2022-10-31T03:08:24.472Z,10.90
2022-10-31T03:10:57.212Z,10.80
2022-10-31T03:13:35.153Z,10.90
2022-10-31T03:16:11.014Z,10.90
2022-10-31T03:18:44.480Z,10.80
2022-10-31T03:21:16.984Z,10.80
2022-10-31T03:23:48.279Z,10.80
2022-10-31T03:26:18.221Z,10.70
2022-10-31T03:28:49.529Z,10.70
2022-10-31T03:31:25.435Z,10.70
2022-10-31T03:33:56.378Z,10.70
2022-10-31T03:36:25.487Z,10.70
2022-10-31T03:38:54.469Z,10.60
2022-10-31T03:41:26.001Z,10.60
2022-10-31T03:43:59.499Z,10.60
2022-10-31T03:46:27.853Z,10.60
2022-10-31T03:48:57.974Z,10.60
2022-10-31T03:51:31.909Z,10.60
2022-10-31T03:54:06.352Z,10.60
2022-10-31T03:56:39.779Z,10.60
2022-10-31T03:59:11.766Z,10.60
2022-10-31T04:01:44.050Z,10.50
2022-10-31T04:04:13.825Z,10.50
2022-10-31T04:06:44.251Z,10.50
2022-10-31T04:09:13.157Z,10.50
2022-10-31T04:11:47.815Z,10.50
2022-10-31T04:14:15.904Z,10.40
2022-10-31T04:16:45.822Z,10.40
2022-10-31T04:19:16.542Z,10.40
2022-10-31T04:21:45.352Z,10.40
2022-10-31T04:24:13.453Z,10.40
2022-10-31T04:26:41.536Z,10.40
2022-10-31T04:29:09.597Z,10.40
2022-10-31T04:31:37.697Z,10.30
2022-10-31T04:34:05.741Z,10.40
2022-10-31T04:36:35.338Z,10.40
2022-10-31T04:39:03.422Z,10.40
2022-10-31T04:41:32.747Z,10.40
2022-10-31T04:44:00.837Z,10.40
2022-10-31T04:46:28.930Z,10.40
2022-10-31T04:48:57.383Z,10.30
2022-10-31T04:51:25.565Z,10.30
2022-10-31T04:53:55.046Z,10.20
2022-10-31T04:56:23.137Z,10.20
2022-10-31T04:58:51.209Z,10.30
2022-10-31T05:01:19.437Z,10.20
2022-10-31T05:03:47.609Z,10.20
2022-10-31T05:06:17.515Z,10.10
2022-10-31T05:08:45.586Z,10.10
2022-10-31T05:11:15.201Z,10.10
2022-10-31T05:13:43.261Z,10.00
2022-10-31T05:16:11.368Z,10.00
2022-10-31T05:18:39.433Z,10.00
2022-10-31T05:21:07.534Z,10.00
2022-10-31T05:23:35.622Z,9.90
2022-10-31T05:26:03.789Z,9.80
2022-10-31T05:28:33.286Z,9.80
2022-10-31T05:31:01.343Z,9.90
2022-10-31T05:33:29.411Z,9.80
2022-10-31T05:35:57.468Z,9.80
2022-10-31T05:38:25.602Z,9.70
2022-10-31T05:40:58.586Z,9.80
2022-10-31T05:43:26.679Z,9.80
2022-10-31T05:45:56.809Z,9.80
2022-10-31T05:48:24.984Z,9.80
2022-10-31T05:50:53.181Z,9.70
2022-10-31T05:53:21.312Z,9.70
2022-10-31T05:55:49.543Z,9.70
2022-10-31T05:58:17.658Z,9.70
2022-10-31T06:00:45.698Z,9.60
2022-10-31T06:03:15.176Z,9.60
2022-10-31T06:05:43.282Z,9.60
2022-10-31T06:08:11.373Z,9.70
2022-10-31T06:10:39.422Z,9.60
2022-10-31T06:13:07.667Z,9.70
2022-10-31T06:15:35.734Z,9.70
2022-10-31T06:18:05.881Z,9.80
2022-10-31T06:20:35.990Z,9.70
2022-10-31T06:23:05.214Z,9.70
2022-10-31T06:25:33.888Z,9.70
2022-10-31T06:28:01.999Z,9.60
2022-10-31T06:30:30.475Z,9.60
2022-10-31T06:33:04.656Z,9.60
2022-10-31T06:35:33.128Z,9.60
2022-10-31T06:38:02.875Z,9.60
2022-10-31T06:40:31.229Z,9.60
2022-10-31T06:43:00.777Z,9.60
2022-10-31T06:45:29.503Z,9.70
2022-10-31T06:50:46.993Z,9.70
2022-10-31T06:53:16.814Z,9.70
2022-10-31T06:55:44.952Z,9.80
2022-10-31T06:58:13.711Z,9.90
2022-10-31T07:00:41.941Z,9.90
2022-10-31T07:03:13.061Z,10.10
2022-10-31T07:05:41.938Z,10.20
2022-10-31T07:08:12.429Z,10.20
2022-10-31T07:10:43.679Z,10.20
2022-10-31T07:13:14.280Z,10.30
2022-10-31T07:15:43.997Z,10.30
2022-10-31T07:18:13.612Z,10.30
2022-10-31T07:20:41.862Z,10.50
2022-10-31T07:23:11.686Z,10.50
2022-10-31T07:25:41.538Z,10.50
2022-10-31T07:28:10.478Z,10.60
2022-10-31T07:30:38.723Z,10.60
2022-10-31T07:33:07.896Z,10.70
2022-10-31T07:35:36.448Z,10.70
2022-10-31T07:38:11.845Z,10.80
2022-10-31T07:40:42.110Z,10.90
2022-10-31T07:43:14.030Z,10.90
2022-10-31T07:45:43.133Z,11.00
2022-10-31T07:48:11.284Z,11.10
2022-10-31T07:50:40.236Z,11.10
2022-10-31T07:53:10.676Z,11.30
2022-10-31T07:55:39.321Z,11.30
2022-10-31T07:58:10.447Z,11.40
2022-10-31T08:00:39.904Z,11.50
2022-10-31T08:03:09.928Z,11.50
2022-10-31T08:05:38.517Z,11.50
2022-10-31T08:08:07.649Z,11.60
2022-10-31T08:10:37.118Z,11.60
2022-10-31T08:13:09.642Z,11.60
2022-10-31T08:15:40.441Z,11.70
2022-10-31T08:18:09.247Z,11.60
2022-10-31T08:20:37.407Z,11.70
2022-10-31T08:23:07.019Z,11.80
2022-10-31T08:25:38.658Z,11.90
2022-10-31T08:28:10.483Z,11.90
2022-10-31T08:30:40.122Z,12.00
2022-10-31T08:33:11.327Z,12.00
2022-10-31T08:35:39.998Z,12.10
2022-10-31T08:38:08.763Z,12.20
2022-10-31T08:40:37.988Z,12.30
2022-10-31T08:43:11.020Z,12.40
2022-10-31T08:45:39.246Z,12.50
2022-10-31T08:48:12.299Z,12.60
2022-10-31T08:50:40.762Z,12.60
2022-10-31T08:53:13.575Z,12.70
2022-10-31T08:55:43.930Z,12.80
2022-10-31T08:58:16.763Z,12.90
2022-10-31T09:00:45.692Z,12.90
2022-10-31T09:03:15.480Z,13.00
2022-10-31T09:05:43.808Z,13.10
2022-10-31T09:08:16.420Z,13.10
2022-10-31T09:10:45.505Z,13.20
2022-10-31T09:13:17.033Z,13.30
2022-10-31T09:15:47.818Z,13.30
2022-10-31T09:18:18.545Z,13.40
2022-10-31T09:20:48.022Z,13.50
2022-10-31T09:23:17.683Z,13.60
2022-10-31T09:25:50.174Z,13.60
2022-10-31T09:28:21.573Z,13.70
2022-10-31T09:30:50.987Z,13.80
2022-10-31T09:33:19.412Z,13.80
2022-10-31T09:35:47.497Z,13.90
2022-10-31T09:38:17.068Z,14.00
2022-10-31T09:40:47.044Z,14.10
2022-10-31T09:43:21.291Z,14.10
2022-10-31T09:45:58.247Z,14.20
2022-10-31T09:48:56.016Z,14.20
2022-10-31T09:51:27.897Z,14.30
2022-10-31T09:54:01.716Z,14.40
2022-10-31T09:56:30.902Z,14.50
2022-10-31T09:59:02.224Z,14.50
2022-10-31T10:01:42.006Z,14.60
2022-10-31T10:04:25.658Z,14.70
2022-10-31T10:06:54.649Z,14.70
2022-10-31T10:09:27.284Z,14.80
2022-10-31T10:12:07.102Z,14.80
2022-10-31T10:14:59.709Z,14.90
2022-10-31T10:17:41.926Z,14.90
2022-10-31T10:20:31.123Z,15.00
2022-10-31T10:23:35.134Z,15.10
2022-10-31T10:26:12.238Z,15.20
2022-10-31T10:28:44.001Z,15.20
2022-10-31T10:31:16.982Z,15.30
2022-10-31T10:33:49.838Z,15.40
2022-10-31T10:36:22.898Z,15.50
2022-10-31T10:38:56.240Z,15.50
2022-10-31T10:41:29.318Z,15.60
2022-10-31T10:43:58.981Z,15.70
2022-10-31T10:46:58.091Z,15.70
2022-10-31T10:49:34.912Z,15.80
2022-10-31T10:55:05.377Z,15.80
2022-10-31T10:57:51.165Z,15.90
2022-10-31T11:00:22.310Z,15.90
2022-10-31T11:02:52.692Z,16.00
2022-10-31T11:05:32.400Z,16.00
2022-10-31T11:08:00.479Z,16.00
2022-10-31T11:10:28.680Z,16.10
2022-10-31T11:13:04.505Z,16.10
2022-10-31T11:15:37.288Z,16.10
2022-10-31T11:18:07.364Z,16.10
2022-10-31T11:20:37.618Z,16.20
2022-10-31T11:23:19.988Z,16.30
2022-10-31T11:25:53.730Z,16.30
2022-10-31T11:28:21.926Z,16.30
2022-10-31T11:30:52.381Z,16.40
2022-10-31T11:33:33.045Z,16.40
2022-10-31T11:36:03.143Z,16.50
2022-10-31T11:38:37.166Z,16.50
2022-10-31T11:41:13.384Z,16.60
2022-10-31T11:43:49.846Z,16.70
2022-10-31T11:46:23.266Z,16.80
2022-10-31T11:48:55.473Z,16.90
2022-10-31T11:51:25.517Z,16.90
2022-10-31T11:53:58.217Z,17.00
2022-10-31T11:56:39.354Z,17.00
2022-10-31T11:59:16.990Z,17.00
2022-10-31T12:01:50.436Z,17.00
2022-10-31T12:04:20.428Z,17.10
2022-10-31T12:06:51.063Z,17.10
2022-10-31T12:09:23.180Z,17.20
2022-10-31T12:12:14.510Z,17.20
2022-10-31T12:14:54.361Z,17.20
2022-10-31T12:17:25.773Z,17.20
2022-10-31T12:20:05.581Z,17.30
2022-10-31T12:22:43.885Z,17.30
2022-10-31T12:25:37.558Z,17.30
2022-10-31T12:28:41.616Z,17.40
2022-10-31T12:31:26.789Z,17.40
2022-10-31T12:34:03.402Z,17.50
2022-10-31T12:36:50.647Z,17.50
2022-10-31T12:39:38.553Z,17.50
2022-10-31T12:42:29.889Z,17.50
2022-10-31T12:45:20.654Z,17.60
2022-10-31T12:48:21.380Z,17.60
2022-10-31T12:51:05.848Z,17.60
2022-10-31T12:53:46.718Z,17.60
2022-10-31T12:56:27.230Z,17.70
2022-10-31T12:59:02.660Z,17.70
2022-10-31T13:01:36.325Z,17.80
2022-10-31T13:04:12.222Z,17.80
2022-10-31T13:06:44.949Z,17.80
2022-10-31T13:09:20.305Z,17.80
2022-10-31T13:11:53.271Z,17.70
2022-10-31T13:14:28.719Z,17.70
2022-10-31T13:16:58.293Z,17.60
2022-10-31T13:19:31.289Z,17.70
2022-10-31T13:22:04.933Z,17.70
2022-10-31T13:24:38.736Z,17.60
2022-10-31T13:27:19.399Z,17.60
2022-10-31T13:29:56.577Z,17.60
2022-10-31T13:32:24.823Z,17.60
2022-10-31T13:34:57.106Z,17.60
2022-10-31T13:37:40.269Z,17.60
2022-10-31T13:40:21.196Z,17.60
2022-10-31T13:42:57.719Z,17.60
2022-10-31T13:45:27.535Z,17.60
2022-10-31T13:48:01.101Z,17.60
2022-10-31T13:50:31.252Z,17.60
2022-10-31T13:53:20.732Z,17.60
2022-10-31T13:55:52.341Z,17.60
2022-10-31T13:58:26.970Z,17.60
2022-10-31T14:01:17.103Z,17.60
2022-10-31T14:04:12.237Z,17.50
2022-10-31T14:06:41.041Z,17.60
2022-10-31T14:09:24.218Z,17.50
2022-10-31T14:11:54.457Z,17.50
2022-10-31T14:14:24.029Z,17.50
2022-10-31T14:16:59.072Z,17.50
2022-10-31T14:19:28.092Z,17.50
2022-10-31T14:21:56.501Z,17.40
2022-10-31T14:24:39.061Z,17.40
2022-10-31T14:27:47.580Z,17.40
2022-10-31T14:30:19.908Z,17.40
2022-10-31T14:32:54.042Z,17.30
2022-10-31T14:35:26.570Z,17.30
2022-10-31T14:38:16.734Z,17.30
2022-10-31T14:40:59.089Z,17.30
2022-10-31T14:43:47.495Z,17.20
2022-10-31T14:46:25.608Z,17.20
2022-10-31T14:49:12.557Z,17.20
2022-10-31T14:51:45.068Z,17.20
2022-10-31T14:54:16.590Z,17.20
2022-10-31T14:56:50.411Z,17.20
2022-10-31T14:59:24.528Z,17.20
2022-10-31T15:01:59.667Z,17.10
2022-10-31T15:04:29.810Z,17.10
2022-10-31T15:07:06.466Z,17.10
2022-10-31T15:09:36.366Z,17.10
2022-10-31T15:12:24.920Z,17.00
2022-10-31T15:14:54.967Z,17.10
2022-10-31T15:17:24.258Z,17.00
2022-10-31T15:19:53.417Z,17.00
2022-10-31T15:22:24.767Z,17.00
2022-10-31T15:24:57.238Z,16.90
2022-10-31T15:27:26.439Z,16.90
2022-10-31T15:29:57.437Z,16.80
2022-10-31T15:32:27.029Z,16.80
2022-10-31T15:34:56.651Z,16.70
2022-10-31T15:37:26.387Z,16.70
2022-10-31T15:39:54.922Z,16.60
2022-10-31T15:42:26.770Z,16.60
2022-10-31T15:45:02.472Z,16.60
2022-10-31T15:47:32.937Z,16.50
2022-10-31T15:50:02.636Z,16.50
2022-10-31T15:52:34.580Z,16.50
2022-10-31T15:55:05.278Z,16.50
2022-10-31T15:57:34.793Z,16.40
2022-10-31T16:00:04.666Z,16.30
2022-10-31T16:02:32.985Z,16.30
2022-10-31T16:05:03.358Z,16.30
2022-10-31T16:07:32.434Z,16.30
2022-10-31T16:10:02.308Z,16.20
2022-10-31T16:12:36.827Z,16.20
2022-10-31T16:15:15.242Z,16.20
2022-10-31T16:17:45.384Z,16.20
2022-10-31T16:20:22.203Z,16.10
2022-10-31T16:22:52.986Z,16.10
2022-10-31T16:25:30.014Z,16.00
2022-10-31T16:28:07.152Z,16.00
2022-10-31T16:30:46.793Z,16.00
2022-10-31T16:33:28.930Z,16.00
2022-10-31T16:36:09.495Z,16.00
2022-10-31T16:38:44.168Z,16.00
2022-10-31T16:41:12.225Z,15.90
2022-10-31T16:43:40.470Z,15.90
2022-10-31T16:46:16.895Z,15.90
2022-10-31T16:48:45.043Z,15.90
2022-10-31T16:51:13.161Z,15.80
2022-10-31T16:53:46.443Z,15.80
2022-10-31T16:56:19.357Z,15.80
2022-10-31T16:58:47.551Z,15.70
2022-10-31T17:01:17.177Z,15.70
2022-10-31T17:03:45.344Z,15.60
2022-10-31T17:06:14.228Z,15.50
2022-10-31T17:08:42.922Z,15.50
2022-10-31T17:11:18.907Z,15.50
2022-10-31T17:13:47.087Z,15.40
2022-10-31T17:16:16.587Z,15.30
2022-10-31T17:18:46.197Z,15.30
2022-10-31T17:21:19.695Z,15.30
2022-10-31T17:23:47.841Z,15.20
2022-10-31T17:26:15.967Z,15.20
2022-10-31T17:28:44.111Z,15.10
2022-10-31T17:31:23.705Z,15.10
2022-10-31T17:33:51.856Z,15.10
2022-10-31T17:36:19.902Z,15.00
2022-10-31T17:38:47.995Z,15.00
2022-10-31T17:41:16.082Z,14.90
2022-10-31T17:43:44.441Z,14.90
2022-10-31T17:46:12.486Z,14.90
2022-10-31T17:48:41.939Z,14.80
2022-10-31T17:51:10.015Z,14.80
2022-10-31T17:53:38.223Z,14.70
2022-10-31T17:56:08.210Z,14.60
2022-10-31T17:58:37.106Z,14.60
2022-10-31T18:01:09.749Z,14.50
2022-10-31T18:03:38.037Z,14.50
2022-10-31T18:06:08.531Z,14.50
2022-10-31T18:08:38.508Z,14.40
2022-10-31T18:11:11.818Z,14.40
2022-10-31T18:13:40.526Z,14.30
2022-10-31T18:16:09.927Z,14.20
2022-10-31T18:18:38.062Z,14.20
2022-10-31T18:21:07.894Z,14.20
2022-10-31T18:23:35.985Z,14.10
2022-10-31T18:26:04.366Z,14.00
2022-10-31T18:28:32.422Z,13.90
2022-10-31T18:31:00.997Z,13.90
2022-10-31T18:33:29.260Z,13.80
2022-10-31T18:35:57.654Z,13.80
2022-10-31T18:38:28.022Z,13.80
2022-10-31T18:40:56.095Z,13.70
2022-10-31T18:43:24.211Z,13.70
2022-10-31T18:45:55.216Z,13.60
2022-10-31T18:48:28.326Z,13.60
2022-10-31T18:50:58.076Z,13.50
2022-10-31T18:53:27.812Z,13.50
2022-10-31T18:55:55.945Z,13.50
2022-10-31T18:58:24.015Z,13.40
2022-10-31T19:00:52.189Z,13.40
2022-10-31T19:03:25.662Z,13.40
2022-10-31T19:05:57.018Z,13.40
2022-10-31T19:08:25.529Z,13.40
2022-10-31T19:10:55.775Z,13.40
2022-10-31T19:13:23.931Z,13.40
2022-10-31T19:15:52.307Z,13.50
2022-10-31T19:18:20.639Z,13.40
2022-10-31T19:20:48.730Z,13.40
2022-10-31T19:23:17.481Z,13.30
2022-10-31T19:25:45.617Z,13.30
2022-10-31T19:28:15.059Z,13.30
2022-10-31T19:30:43.238Z,13.30
2022-10-31T19:33:11.333Z,13.30
2022-10-31T19:35:39.420Z,13.30
2022-10-31T19:38:07.493Z,13.30
2022-10-31T19:40:37.078Z,13.30
2022-10-31T19:43:05.259Z,13.20
2022-10-31T19:45:34.783Z,13.20
2022-10-31T19:48:03.218Z,13.10
2022-10-31T19:50:31.706Z,13.10
2022-10-31T19:53:00.718Z,13.00
2022-10-31T19:55:30.419Z,13.00
2022-10-31T19:58:02.326Z,12.90
2022-10-31T20:00:30.660Z,12.90
2022-10-31T20:03:00.790Z,12.80
2022-10-31T20:05:29.118Z,12.70
2022-10-31T20:07:57.639Z,12.70
2022-10-31T20:10:26.305Z,12.60
2022-10-31T20:12:54.393Z,12.60
2022-10-31T20:15:22.550Z,12.50
2022-10-31T20:17:50.649Z,12.40
2022-10-31T20:20:20.159Z,12.40
2022-10-31T20:22:50.554Z,12.30
2022-10-31T20:25:19.283Z,12.30
2022-10-31T20:27:47.329Z,12.20
2022-10-31T20:30:15.703Z,12.20
2022-10-31T20:32:49.026Z,12.10
2022-10-31T20:35:20.014Z,12.10
2022-10-31T20:37:48.105Z,12.00
2022-10-31T20:40:16.383Z,12.00
2022-10-31T20:42:44.479Z,11.90
2022-10-31T20:45:12.848Z,12.00
2022-10-31T20:47:41.005Z,11.90
2022-10-31T20:50:09.704Z,11.90
2022-10-31T20:52:40.610Z,11.80
2022-10-31T20:55:09.938Z,11.80
2022-10-31T20:57:38.465Z,11.80
2022-10-31T21:00:08.172Z,11.80
2022-10-31T21:02:36.370Z,11.70
2022-10-31T21:05:08.341Z,11.70
2022-10-31T21:07:36.597Z,11.60
2022-10-31T21:10:14.705Z,11.60
2022-10-31T21:12:44.382Z,11.60
2022-10-31T21:15:14.252Z,11.60
2022-10-31T21:17:42.952Z,11.60
2022-10-31T21:20:11.787Z,11.50
2022-10-31T21:22:40.301Z,11.50
2022-10-31T21:25:10.058Z,11.50
2022-10-31T21:27:38.142Z,11.50
2022-10-31T21:30:07.206Z,11.50
2022-10-31T21:32:35.294Z,11.40
2022-10-31T21:35:03.501Z,11.40
2022-10-31T21:37:31.653Z,11.40
2022-10-31T21:39:59.699Z,11.40
2022-10-31T21:42:29.151Z,11.30
2022-10-31T21:44:57.205Z,11.30
2022-10-31T21:47:25.303Z,11.30
2022-10-31T21:49:53.376Z,11.30
2022-10-31T21:52:21.482Z,11.30
2022-10-31T21:54:48.543Z,11.30
2022-10-31T21:57:16.688Z,11.30
2022-10-31T21:59:48.542Z,11.20
2022-10-31T22:02:16.738Z,11.20
2022-10-31T22:04:45.600Z,11.20
2022-10-31T22:07:13.705Z,11.20
2022-10-31T22:09:47.208Z,11.20
2022-10-31T22:12:15.341Z,11.20
2022-10-31T22:14:45.060Z,11.20
2022-10-31T22:17:13.164Z,11.20
2022-10-31T22:19:41.212Z,11.10
2022-10-31T22:22:09.310Z,11.10
2022-10-31T22:24:37.409Z,11.20
2022-10-31T22:27:05.583Z,11.10
2022-10-31T22:29:35.439Z,11.10
2022-10-31T22:32:05.043Z,11.10
2022-10-31T22:34:33.091Z,11.20
2022-10-31T22:37:02.137Z,11.20
2022-10-31T22:39:30.214Z,11.20
2022-10-31T22:41:58.254Z,11.20
2022-10-31T22:44:26.358Z,11.20
2022-10-31T22:46:54.419Z,11.10
2022-10-31T22:49:24.065Z,11.10
2022-10-31T22:51:52.846Z,11.00
2022-10-31T22:54:21.038Z,11.00
2022-10-31T22:56:49.090Z,11.00
2022-10-31T22:59:17.896Z,11.00
2022-10-31T23:01:46.631Z,11.00
2022-10-31T23:04:15.068Z,11.00
2022-10-31T23:06:44.778Z,11.00
2022-10-31T23:09:16.016Z,11.00
2022-10-31T23:11:44.568Z,11.00
2022-10-31T23:14:14.019Z,11.00
2022-10-31T23:16:44.996Z,11.00
2022-10-31T23:19:16.958Z,11.10
2022-10-31T23:21:59.964Z,11.10
2022-10-31T23:24:36.017Z,11.10
2022-10-31T23:27:10.932Z,11.10
2022-10-31T23:29:45.154Z,11.10
2022-10-31T23:32:16.931Z,11.10
2022-10-31T23:34:45.287Z,11.10
2022-10-31T23:37:16.062Z,11.10
2022-10-31T23:39:44.525Z,11.20
2022-10-31T23:42:13.758Z,11.10
2022-10-31T23:44:41.967Z,11.20
2022-10-31T23:47:10.201Z,11.20
2022-10-31T23:49:38.421Z,11.20
2022-10-31T23:52:07.337Z,11.20
2022-10-31T23:54:37.336Z,11.30
2022-10-31T23:57:06.229Z,11.30
2022-10-31T23:59:34.705Z,11.20
